sensor_id;sensor_type;location;lat;lon;timestamp;temperature;humidity
25328;DHT22;13279;51.300;12.394;2024-01-27T00:00:29;5.00;99.90
25328;DHT22;13279;51.300;12.394;2024-01-27T00:02:56;5.00;99.90
25328;DHT22;13279;51.300;12.394;2024-01-27T00:05:23;5.00;99.90
25328;DHT22;13279;51.300;12.394;2024-01-27T00:07:51;5.00;99.90
25328;DHT22;13279;51.300;12.394;2024-01-27T00:10:18;4.90;99.90
25328;DHT22;13279;51.300;12.394;2024-01-27T00:12:47;4.90;99.90
25328;DHT22;13279;51.300;12.394;2024-01-27T00:15:14;4.90;99.90
25328;DHT22;13279;51.300;12.394;2024-01-27T00:17:41;4.80;99.90
25328;DHT22;13279;51.300;12.394;2024-01-27T00:20:09;4.80;99.90
25328;DHT22;13279;51.300;12.394;2024-01-27T00:22:37;4.80;99.90
25328;DHT22;13279;51.300;12.394;2024-01-27T00:25:05;4.80;99.90
25328;DHT22;13279;51.300;12.394;2024-01-27T00:27:32;4.70;99.90
25328;DHT22;13279;51.300;12.394;2024-01-27T00:30:02;4.80;99.90
25328;DHT22;13279;51.300;12.394;2024-01-27T00:32:30;4.80;99.90
25328;DHT22;13279;51.300;12.394;2024-01-27T00:35:00;4.80;99.90
25328;DHT22;13279;51.300;12.394;2024-01-27T00:37:27;4.80;99.90
25328;DHT22;13279;51.300;12.394;2024-01-27T00:39:54;4.80;99.90
25328;DHT22;13279;51.300;12.394;2024-01-27T00:42:21;4.90;99.90
25328;DHT22;13279;51.300;12.394;2024-01-27T00:44:50;4.90;99.90
25328;DHT22;13279;51.300;12.394;2024-01-27T00:47:18;4.90;99.90
25328;DHT22;13279;51.300;12.394;2024-01-27T00:49:46;4.90;99.90
25328;DHT22;13279;51.300;12.394;2024-01-27T00:52:13;5.00;99.90
25328;DHT22;13279;51.300;12.394;2024-01-27T00:54:41;5.00;99.90
25328;DHT22;13279;51.300;12.394;2024-01-27T00:57:08;5.00;99.90
25328;DHT22;13279;51.300;12.394;2024-01-27T00:59:36;5.00;99.90
25328;DHT22;13279;51.300;12.394;2024-01-27T01:02:02;4.90;99.90
25328;DHT22;13279;51.300;12.394;2024-01-27T01:04:31;4.90;99.90
25328;DHT22;13279;51.300;12.394;2024-01-27T01:06:58;4.90;99.90
25328;DHT22;13279;51.300;12.394;2024-01-27T01:09:26;4.90;99.90
25328;DHT22;13279;51.300;12.394;2024-01-27T01:11:53;4.90;99.90
25328;DHT22;13279;51.300;12.394;2024-01-27T01:14:21;4.90;99.90
25328;DHT22;13279;51.300;12.394;2024-01-27T01:16:48;4.90;99.90
25328;DHT22;13279;51.300;12.394;2024-01-27T01:19:16;4.90;99.90
25328;DHT22;13279;51.300;12.394;2024-01-27T01:21:44;4.90;99.90
25328;DHT22;13279;51.300;12.394;2024-01-27T01:24:12;4.90;99.90
25328;DHT22;13279;51.300;12.394;2024-01-27T01:26:39;4.90;99.90
25328;DHT22;13279;51.300;12.394;2024-01-27T01:29:07;4.90;99.90
25328;DHT22;13279;51.300;12.394;2024-01-27T01:31:34;4.80;99.90
25328;DHT22;13279;51.300;12.394;2024-01-27T01:34:02;4.80;99.90
25328;DHT22;13279;51.300;12.394;2024-01-27T01:36:29;4.80;99.90
25328;DHT22;13279;51.300;12.394;2024-01-27T01:38:58;4.90;99.90
25328;DHT22;13279;51.300;12.394;2024-01-27T01:41:25;4.90;99.90
25328;DHT22;13279;51.300;12.394;2024-01-27T01:43:52;4.90;99.90
25328;DHT22;13279;51.300;12.394;2024-01-27T01:46:21;4.90;99.90
25328;DHT22;13279;51.300;12.394;2024-01-27T01:48:49;4.90;99.90
25328;DHT22;13279;51.300;12.394;2024-01-27T01:51:17;4.90;99.90
25328;DHT22;13279;51.300;12.394;2024-01-27T01:53:45;4.80;99.90
25328;DHT22;13279;51.300;12.394;2024-01-27T01:56:16;4.80;99.90
25328;DHT22;13279;51.300;12.394;2024-01-27T01:58:44;4.70;99.90
25328;DHT22;13279;51.300;12.394;2024-01-27T02:01:11;4.70;99.90
25328;DHT22;13279;51.300;12.394;2024-01-27T02:03:38;4.70;99.90
25328;DHT22;13279;51.300;12.394;2024-01-27T02:06:06;4.60;99.90
25328;DHT22;13279;51.300;12.394;2024-01-27T02:08:33;4.60;99.90
25328;DHT22;13279;51.300;12.394;2024-01-27T02:11:01;4.60;99.90
25328;DHT22;13279;51.300;12.394;2024-01-27T02:13:30;4.50;99.90
25328;DHT22;13279;51.300;12.394;2024-01-27T02:15:57;4.50;99.90
25328;DHT22;13279;51.300;12.394;2024-01-27T02:18:24;4.50;99.90
25328;DHT22;13279;51.300;12.394;2024-01-27T02:20:52;4.40;99.90
25328;DHT22;13279;51.300;12.394;2024-01-27T02:23:19;4.30;99.90
25328;DHT22;13279;51.300;12.394;2024-01-27T02:25:48;4.40;99.90
25328;DHT22;13279;51.300;12.394;2024-01-27T02:28:16;4.30;99.90
25328;DHT22;13279;51.300;12.394;2024-01-27T02:30:44;4.30;99.90
25328;DHT22;13279;51.300;12.394;2024-01-27T02:33:11;4.20;99.90
25328;DHT22;13279;51.300;12.394;2024-01-27T02:35:39;4.20;99.90
25328;DHT22;13279;51.300;12.394;2024-01-27T02:38:06;4.20;99.90
25328;DHT22;13279;51.300;12.394;2024-01-27T02:40:34;4.10;99.90
25328;DHT22;13279;51.300;12.394;2024-01-27T02:43:03;4.10;99.90
25328;DHT22;13279;51.300;12.394;2024-01-27T02:45:30;4.10;99.90
25328;DHT22;13279;51.300;12.394;2024-01-27T02:47:57;4.10;99.90
25328;DHT22;13279;51.300;12.394;2024-01-27T02:50:25;4.10;99.90
25328;DHT22;13279;51.300;12.394;2024-01-27T02:52:52;4.00;99.90
25328;DHT22;13279;51.300;12.394;2024-01-27T02:55:20;4.00;99.90
25328;DHT22;13279;51.300;12.394;2024-01-27T02:57:47;4.00;99.90
25328;DHT22;13279;51.300;12.394;2024-01-27T03:00:16;4.00;99.90
25328;DHT22;13279;51.300;12.394;2024-01-27T03:02:45;4.00;99.90
25328;DHT22;13279;51.300;12.394;2024-01-27T03:05:12;3.90;99.90
25328;DHT22;13279;51.300;12.394;2024-01-27T03:07:40;4.00;99.90
25328;DHT22;13279;51.300;12.394;2024-01-27T03:10:07;3.90;99.90
25328;DHT22;13279;51.300;12.394;2024-01-27T03:12:35;3.80;99.90
25328;DHT22;13279;51.300;12.394;2024-01-27T03:15:03;4.00;99.90
25328;DHT22;13279;51.300;12.394;2024-01-27T03:17:32;3.90;99.90
25328;DHT22;13279;51.300;12.394;2024-01-27T03:19:59;3.90;99.90
25328;DHT22;13279;51.300;12.394;2024-01-27T03:22:26;3.90;99.90
25328;DHT22;13279;51.300;12.394;2024-01-27T03:24:54;3.90;99.90
25328;DHT22;13279;51.300;12.394;2024-01-27T03:27:22;3.90;99.90
25328;DHT22;13279;51.300;12.394;2024-01-27T03:29:49;4.00;99.90
25328;DHT22;13279;51.300;12.394;2024-01-27T03:32:16;4.00;99.90
25328;DHT22;13279;51.300;12.394;2024-01-27T03:34:45;3.90;99.90
25328;DHT22;13279;51.300;12.394;2024-01-27T03:37:13;3.90;99.90
25328;DHT22;13279;51.300;12.394;2024-01-27T03:39:41;3.90;99.90
25328;DHT22;13279;51.300;12.394;2024-01-27T03:42:09;3.90;99.90
25328;DHT22;13279;51.300;12.394;2024-01-27T03:44:37;3.80;99.90
25328;DHT22;13279;51.300;12.394;2024-01-27T03:47:04;3.80;99.90
25328;DHT22;13279;51.300;12.394;2024-01-27T03:49:32;3.80;99.90
25328;DHT22;13279;51.300;12.394;2024-01-27T03:52:01;3.70;99.90
25328;DHT22;13279;51.300;12.394;2024-01-27T03:54:28;3.70;99.90
25328;DHT22;13279;51.300;12.394;2024-01-27T03:56:56;3.70;99.90
25328;DHT22;13279;51.300;12.394;2024-01-27T03:59:23;3.60;99.90
25328;DHT22;13279;51.300;12.394;2024-01-27T04:01:50;3.60;99.90
25328;DHT22;13279;51.300;12.394;2024-01-27T04:04:18;3.60;99.90
25328;DHT22;13279;51.300;12.394;2024-01-27T04:06:45;3.60;99.90
25328;DHT22;13279;51.300;12.394;2024-01-27T04:09:14;3.60;99.90
25328;DHT22;13279;51.300;12.394;2024-01-27T04:11:42;3.60;99.90
25328;DHT22;13279;51.300;12.394;2024-01-27T04:14:09;3.60;99.90
25328;DHT22;13279;51.300;12.394;2024-01-27T04:16:37;3.60;99.90
25328;DHT22;13279;51.300;12.394;2024-01-27T04:19:04;3.60;99.90
25328;DHT22;13279;51.300;12.394;2024-01-27T04:21:32;3.60;99.90
25328;DHT22;13279;51.300;12.394;2024-01-27T04:23:59;3.60;99.90
25328;DHT22;13279;51.300;12.394;2024-01-27T04:26:28;3.60;99.90
25328;DHT22;13279;51.300;12.394;2024-01-27T04:28:55;3.40;99.90
25328;DHT22;13279;51.300;12.394;2024-01-27T04:31:23;3.50;99.90
25328;DHT22;13279;51.300;12.394;2024-01-27T04:33:50;3.50;99.90
25328;DHT22;13279;51.300;12.394;2024-01-27T04:36:25;3.60;99.90
25328;DHT22;13279;51.300;12.394;2024-01-27T04:38:53;3.60;99.90
25328;DHT22;13279;51.300;12.394;2024-01-27T04:41:21;3.60;99.90
25328;DHT22;13279;51.300;12.394;2024-01-27T04:43:50;3.60;99.90
25328;DHT22;13279;51.300;12.394;2024-01-27T04:46:18;3.60;99.90
25328;DHT22;13279;51.300;12.394;2024-01-27T04:48:46;3.60;99.90
25328;DHT22;13279;51.300;12.394;2024-01-27T04:51:14;3.60;99.90
25328;DHT22;13279;51.300;12.394;2024-01-27T04:53:41;3.60;99.90
25328;DHT22;13279;51.300;12.394;2024-01-27T04:56:08;3.60;99.90
25328;DHT22;13279;51.300;12.394;2024-01-27T04:58:36;3.60;99.90
25328;DHT22;13279;51.300;12.394;2024-01-27T05:01:04;3.50;99.90
25328;DHT22;13279;51.300;12.394;2024-01-27T05:03:32;3.50;99.90
25328;DHT22;13279;51.300;12.394;2024-01-27T05:05:59;3.50;99.90
25328;DHT22;13279;51.300;12.394;2024-01-27T05:08:27;3.50;99.90
25328;DHT22;13279;51.300;12.394;2024-01-27T05:10:54;3.50;99.90
25328;DHT22;13279;51.300;12.394;2024-01-27T05:13:22;3.40;99.90
25328;DHT22;13279;51.300;12.394;2024-01-27T05:15:49;3.40;99.90
25328;DHT22;13279;51.300;12.394;2024-01-27T05:18:18;3.40;99.90
25328;DHT22;13279;51.300;12.394;2024-01-27T05:20:45;3.30;99.90
25328;DHT22;13279;51.300;12.394;2024-01-27T05:23:13;3.30;99.90
25328;DHT22;13279;51.300;12.394;2024-01-27T05:25:40;3.30;99.90
25328;DHT22;13279;51.300;12.394;2024-01-27T05:28:08;3.40;99.90
25328;DHT22;13279;51.300;12.394;2024-01-27T05:30:36;3.40;99.90
25328;DHT22;13279;51.300;12.394;2024-01-27T05:33:04;3.40;99.90
25328;DHT22;13279;51.300;12.394;2024-01-27T05:35:32;3.40;99.90
25328;DHT22;13279;51.300;12.394;2024-01-27T05:38:00;3.50;99.90
25328;DHT22;13279;51.300;12.394;2024-01-27T05:40:28;3.50;99.90
25328;DHT22;13279;51.300;12.394;2024-01-27T05:42:55;3.50;99.90
25328;DHT22;13279;51.300;12.394;2024-01-27T05:45:23;3.60;99.90
25328;DHT22;13279;51.300;12.394;2024-01-27T05:47:50;3.60;99.90
25328;DHT22;13279;51.300;12.394;2024-01-27T05:50:18;3.70;99.90
25328;DHT22;13279;51.300;12.394;2024-01-27T05:52:46;3.70;99.90
25328;DHT22;13279;51.300;12.394;2024-01-27T05:55:14;3.70;99.90
25328;DHT22;13279;51.300;12.394;2024-01-27T05:57:42;3.80;99.90
25328;DHT22;13279;51.300;12.394;2024-01-27T06:00:11;3.80;99.90
25328;DHT22;13279;51.300;12.394;2024-01-27T06:02:39;3.80;99.90
25328;DHT22;13279;51.300;12.394;2024-01-27T06:05:07;3.80;99.90
25328;DHT22;13279;51.300;12.394;2024-01-27T06:07:37;3.80;99.90
25328;DHT22;13279;51.300;12.394;2024-01-27T06:10:09;3.80;99.90
25328;DHT22;13279;51.300;12.394;2024-01-27T06:12:38;3.80;99.90
25328;DHT22;13279;51.300;12.394;2024-01-27T06:15:06;3.80;99.90
25328;DHT22;13279;51.300;12.394;2024-01-27T06:17:34;3.80;99.90
25328;DHT22;13279;51.300;12.394;2024-01-27T06:20:02;3.80;99.90
25328;DHT22;13279;51.300;12.394;2024-01-27T06:22:30;3.70;99.90
25328;DHT22;13279;51.300;12.394;2024-01-27T06:24:58;3.70;99.90
25328;DHT22;13279;51.300;12.394;2024-01-27T06:27:27;3.70;99.90
25328;DHT22;13279;51.300;12.394;2024-01-27T06:29:54;3.70;99.90
25328;DHT22;13279;51.300;12.394;2024-01-27T06:32:22;3.60;99.90
25328;DHT22;13279;51.300;12.394;2024-01-27T06:34:49;3.60;99.90
25328;DHT22;13279;51.300;12.394;2024-01-27T06:37:17;3.50;99.90
25328;DHT22;13279;51.300;12.394;2024-01-27T06:39:45;3.50;99.90
25328;DHT22;13279;51.300;12.394;2024-01-27T06:42:14;3.50;99.90
25328;DHT22;13279;51.300;12.394;2024-01-27T06:44:43;3.40;99.90
25328;DHT22;13279;51.300;12.394;2024-01-27T06:47:10;3.50;99.90
25328;DHT22;13279;51.300;12.394;2024-01-27T06:49:37;3.40;99.90
25328;DHT22;13279;51.300;12.394;2024-01-27T06:52:05;3.40;99.90
25328;DHT22;13279;51.300;12.394;2024-01-27T06:54:32;3.30;99.90
25328;DHT22;13279;51.300;12.394;2024-01-27T06:57:00;3.30;99.90
25328;DHT22;13279;51.300;12.394;2024-01-27T06:59:27;3.20;99.90
25328;DHT22;13279;51.300;12.394;2024-01-27T07:01:56;3.20;99.90
25328;DHT22;13279;51.300;12.394;2024-01-27T07:04:23;3.20;99.90
25328;DHT22;13279;51.300;12.394;2024-01-27T07:06:51;3.20;99.90
25328;DHT22;13279;51.300;12.394;2024-01-27T07:09:18;3.20;99.90
25328;DHT22;13279;51.300;12.394;2024-01-27T07:11:46;3.20;99.90
25328;DHT22;13279;51.300;12.394;2024-01-27T07:14:13;3.20;99.90
25328;DHT22;13279;51.300;12.394;2024-01-27T07:16:41;3.30;99.90
25328;DHT22;13279;51.300;12.394;2024-01-27T07:19:09;3.30;99.90
25328;DHT22;13279;51.300;12.394;2024-01-27T07:21:37;3.30;99.90
25328;DHT22;13279;51.300;12.394;2024-01-27T07:24:05;3.30;99.90
25328;DHT22;13279;51.300;12.394;2024-01-27T07:26:32;3.30;99.90
25328;DHT22;13279;51.300;12.394;2024-01-27T07:28:59;3.30;99.90
25328;DHT22;13279;51.300;12.394;2024-01-27T07:31:27;3.40;99.90
25328;DHT22;13279;51.300;12.394;2024-01-27T07:33:54;3.40;99.90
25328;DHT22;13279;51.300;12.394;2024-01-27T07:36:24;3.40;99.90
25328;DHT22;13279;51.300;12.394;2024-01-27T07:38:56;3.50;99.90
25328;DHT22;13279;51.300;12.394;2024-01-27T07:41:24;3.50;99.90
25328;DHT22;13279;51.300;12.394;2024-01-27T07:43:51;3.50;99.90
25328;DHT22;13279;51.300;12.394;2024-01-27T07:46:18;3.60;99.90
25328;DHT22;13279;51.300;12.394;2024-01-27T07:48:47;3.60;99.90
25328;DHT22;13279;51.300;12.394;2024-01-27T07:51:15;3.60;99.90
25328;DHT22;13279;51.300;12.394;2024-01-27T07:53:44;3.70;99.90
25328;DHT22;13279;51.300;12.394;2024-01-27T07:56:11;3.70;99.90
25328;DHT22;13279;51.300;12.394;2024-01-27T07:58:38;3.70;99.90
25328;DHT22;13279;51.300;12.394;2024-01-27T08:01:05;3.70;99.90
25328;DHT22;13279;51.300;12.394;2024-01-27T08:03:33;3.60;99.90
25328;DHT22;13279;51.300;12.394;2024-01-27T08:06:04;3.70;99.90
25328;DHT22;13279;51.300;12.394;2024-01-27T08:08:33;3.70;99.90
25328;DHT22;13279;51.300;12.394;2024-01-27T08:11:02;3.70;99.90
25328;DHT22;13279;51.300;12.394;2024-01-27T08:13:30;3.70;99.90
25328;DHT22;13279;51.300;12.394;2024-01-27T08:15:57;3.70;99.90
25328;DHT22;13279;51.300;12.394;2024-01-27T08:18:25;3.80;99.90
25328;DHT22;13279;51.300;12.394;2024-01-27T08:20:52;3.80;99.90
25328;DHT22;13279;51.300;12.394;2024-01-27T08:23:20;3.90;99.90
25328;DHT22;13279;51.300;12.394;2024-01-27T08:25:47;4.00;99.90
25328;DHT22;13279;51.300;12.394;2024-01-27T08:28:19;4.10;99.90
25328;DHT22;13279;51.300;12.394;2024-01-27T08:30:46;4.20;99.90
25328;DHT22;13279;51.300;12.394;2024-01-27T08:33:14;4.30;99.90
25328;DHT22;13279;51.300;12.394;2024-01-27T08:35:41;4.40;99.90
25328;DHT22;13279;51.300;12.394;2024-01-27T08:38:09;4.50;99.90
25328;DHT22;13279;51.300;12.394;2024-01-27T08:40:37;4.70;99.90
25328;DHT22;13279;51.300;12.394;2024-01-27T08:43:04;4.70;99.90
25328;DHT22;13279;51.300;12.394;2024-01-27T08:45:33;4.80;99.90
25328;DHT22;13279;51.300;12.394;2024-01-27T08:48:00;4.80;99.90
25328;DHT22;13279;51.300;12.394;2024-01-27T08:50:27;4.90;99.90
25328;DHT22;13279;51.300;12.394;2024-01-27T08:52:55;4.90;99.90
25328;DHT22;13279;51.300;12.394;2024-01-27T08:55:22;5.10;99.90
25328;DHT22;13279;51.300;12.394;2024-01-27T08:57:51;5.30;99.90
25328;DHT22;13279;51.300;12.394;2024-01-27T09:00:18;5.40;99.90
25328;DHT22;13279;51.300;12.394;2024-01-27T09:02:47;5.50;99.90
25328;DHT22;13279;51.300;12.394;2024-01-27T09:05:14;5.40;99.90
25328;DHT22;13279;51.300;12.394;2024-01-27T09:07:42;5.50;99.90
25328;DHT22;13279;51.300;12.394;2024-01-27T09:10:09;5.60;99.90
25328;DHT22;13279;51.300;12.394;2024-01-27T09:12:38;5.60;99.90
25328;DHT22;13279;51.300;12.394;2024-01-27T09:15:07;5.90;99.90
25328;DHT22;13279;51.300;12.394;2024-01-27T09:17:34;6.00;99.90
25328;DHT22;13279;51.300;12.394;2024-01-27T09:20:03;6.10;99.90
25328;DHT22;13279;51.300;12.394;2024-01-27T09:22:31;6.20;99.90
25328;DHT22;13279;51.300;12.394;2024-01-27T09:24:58;6.30;99.90
25328;DHT22;13279;51.300;12.394;2024-01-27T09:27:26;6.30;99.90
25328;DHT22;13279;51.300;12.394;2024-01-27T09:29:53;6.30;99.90
25328;DHT22;13279;51.300;12.394;2024-01-27T09:32:21;6.40;99.90
25328;DHT22;13279;51.300;12.394;2024-01-27T09:34:49;6.50;99.90
25328;DHT22;13279;51.300;12.394;2024-01-27T09:37:18;6.40;99.90
25328;DHT22;13279;51.300;12.394;2024-01-27T09:39:45;6.30;99.90
25328;DHT22;13279;51.300;12.394;2024-01-27T09:42:13;6.30;99.90
25328;DHT22;13279;51.300;12.394;2024-01-27T09:44:43;6.60;99.90
25328;DHT22;13279;51.300;12.394;2024-01-27T09:47:11;6.80;99.90
25328;DHT22;13279;51.300;12.394;2024-01-27T09:49:39;6.50;99.90
25328;DHT22;13279;51.300;12.394;2024-01-27T09:52:08;6.60;99.90
25328;DHT22;13279;51.300;12.394;2024-01-27T09:54:37;6.70;99.90
25328;DHT22;13279;51.300;12.394;2024-01-27T09:57:05;6.80;99.90
25328;DHT22;13279;51.300;12.394;2024-01-27T09:59:33;6.80;99.90
25328;DHT22;13279;51.300;12.394;2024-01-27T10:02:02;6.90;99.90
25328;DHT22;13279;51.300;12.394;2024-01-27T10:04:31;7.00;99.90
25328;DHT22;13279;51.300;12.394;2024-01-27T10:06:59;6.60;99.90
25328;DHT22;13279;51.300;12.394;2024-01-27T10:09:26;6.90;99.90
25328;DHT22;13279;51.300;12.394;2024-01-27T10:11:55;7.20;99.90
25328;DHT22;13279;51.300;12.394;2024-01-27T10:14:23;7.20;99.90
25328;DHT22;13279;51.300;12.394;2024-01-27T10:16:51;7.20;99.90
25328;DHT22;13279;51.300;12.394;2024-01-27T10:19:19;7.20;99.90
25328;DHT22;13279;51.300;12.394;2024-01-27T10:21:47;7.40;99.90
25328;DHT22;13279;51.300;12.394;2024-01-27T10:24:15;7.20;99.90
25328;DHT22;13279;51.300;12.394;2024-01-27T10:26:42;7.30;99.90
25328;DHT22;13279;51.300;12.394;2024-01-27T10:29:11;7.40;99.90
25328;DHT22;13279;51.300;12.394;2024-01-27T10:31:38;7.40;99.90
25328;DHT22;13279;51.300;12.394;2024-01-27T10:34:06;7.40;99.90
25328;DHT22;13279;51.300;12.394;2024-01-27T10:36:39;7.50;99.90
25328;DHT22;13279;51.300;12.394;2024-01-27T10:39:17;7.60;99.90
25328;DHT22;13279;51.300;12.394;2024-01-27T10:41:47;7.60;99.90
25328;DHT22;13279;51.300;12.394;2024-01-27T10:44:17;7.60;99.90
25328;DHT22;13279;51.300;12.394;2024-01-27T10:46:46;7.60;99.90
25328;DHT22;13279;51.300;12.394;2024-01-27T10:49:14;7.50;99.90
25328;DHT22;13279;51.300;12.394;2024-01-27T10:51:44;7.30;99.90
25328;DHT22;13279;51.300;12.394;2024-01-27T10:54:18;7.20;99.90
25328;DHT22;13279;51.300;12.394;2024-01-27T10:56:46;7.20;99.90
25328;DHT22;13279;51.300;12.394;2024-01-27T10:59:14;7.10;99.90
25328;DHT22;13279;51.300;12.394;2024-01-27T11:01:45;7.00;99.90
25328;DHT22;13279;51.300;12.394;2024-01-27T11:04:14;6.90;99.90
25328;DHT22;13279;51.300;12.394;2024-01-27T11:06:42;6.80;99.90
25328;DHT22;13279;51.300;12.394;2024-01-27T11:09:10;6.90;99.90
25328;DHT22;13279;51.300;12.394;2024-01-27T11:11:40;6.90;99.90
25328;DHT22;13279;51.300;12.394;2024-01-27T11:14:08;7.00;99.90
25328;DHT22;13279;51.300;12.394;2024-01-27T11:16:36;7.00;99.90
25328;DHT22;13279;51.300;12.394;2024-01-27T11:19:11;6.90;99.90
25328;DHT22;13279;51.300;12.394;2024-01-27T11:21:38;7.20;99.90
25328;DHT22;13279;51.300;12.394;2024-01-27T11:24:16;7.20;99.90
25328;DHT22;13279;51.300;12.394;2024-01-27T11:26:44;7.20;99.90
25328;DHT22;13279;51.300;12.394;2024-01-27T11:29:11;7.30;99.90
25328;DHT22;13279;51.300;12.394;2024-01-27T11:31:45;7.30;99.90
25328;DHT22;13279;51.300;12.394;2024-01-27T11:34:14;7.40;99.90
25328;DHT22;13279;51.300;12.394;2024-01-27T11:36:44;7.40;99.90
25328;DHT22;13279;51.300;12.394;2024-01-27T11:39:24;7.40;99.90
25328;DHT22;13279;51.300;12.394;2024-01-27T11:41:52;7.50;99.90
25328;DHT22;13279;51.300;12.394;2024-01-27T11:44:20;7.40;99.90
25328;DHT22;13279;51.300;12.394;2024-01-27T11:46:48;7.40;99.90
25328;DHT22;13279;51.300;12.394;2024-01-27T11:49:16;7.40;99.90
25328;DHT22;13279;51.300;12.394;2024-01-27T11:51:45;7.50;99.90
25328;DHT22;13279;51.300;12.394;2024-01-27T11:54:12;7.70;99.90
25328;DHT22;13279;51.300;12.394;2024-01-27T11:56:39;7.70;99.90
25328;DHT22;13279;51.300;12.394;2024-01-27T11:59:06;7.70;99.90
25328;DHT22;13279;51.300;12.394;2024-01-27T12:01:33;7.70;99.90
25328;DHT22;13279;51.300;12.394;2024-01-27T12:04:01;7.80;99.90
25328;DHT22;13279;51.300;12.394;2024-01-27T12:06:30;7.80;99.90
25328;DHT22;13279;51.300;12.394;2024-01-27T12:08:58;7.80;99.90
25328;DHT22;13279;51.300;12.394;2024-01-27T12:11:26;7.70;99.90
25328;DHT22;13279;51.300;12.394;2024-01-27T12:13:53;7.70;99.90
25328;DHT22;13279;51.300;12.394;2024-01-27T12:16:22;7.70;99.90
25328;DHT22;13279;51.300;12.394;2024-01-27T12:18:52;7.70;99.90
25328;DHT22;13279;51.300;12.394;2024-01-27T12:21:20;7.80;99.90
25328;DHT22;13279;51.300;12.394;2024-01-27T12:23:53;7.90;99.90
25328;DHT22;13279;51.300;12.394;2024-01-27T12:26:22;7.90;99.90
25328;DHT22;13279;51.300;12.394;2024-01-27T12:28:49;8.00;99.90
25328;DHT22;13279;51.300;12.394;2024-01-27T12:31:17;8.10;99.90
25328;DHT22;13279;51.300;12.394;2024-01-27T12:33:51;8.20;99.90
25328;DHT22;13279;51.300;12.394;2024-01-27T12:36:19;8.30;99.90
25328;DHT22;13279;51.300;12.394;2024-01-27T12:38:53;8.30;99.90
25328;DHT22;13279;51.300;12.394;2024-01-27T12:41:21;8.40;99.90
25328;DHT22;13279;51.300;12.394;2024-01-27T12:43:48;8.50;99.90
25328;DHT22;13279;51.300;12.394;2024-01-27T12:46:16;8.50;99.90
25328;DHT22;13279;51.300;12.394;2024-01-27T12:48:44;8.60;99.90
25328;DHT22;13279;51.300;12.394;2024-01-27T12:51:12;8.60;99.90
25328;DHT22;13279;51.300;12.394;2024-01-27T12:53:41;8.70;99.90
25328;DHT22;13279;51.300;12.394;2024-01-27T12:56:12;8.70;99.90
25328;DHT22;13279;51.300;12.394;2024-01-27T12:58:41;8.70;99.90
25328;DHT22;13279;51.300;12.394;2024-01-27T13:01:08;8.60;99.90
25328;DHT22;13279;51.300;12.394;2024-01-27T13:03:36;8.60;99.90
25328;DHT22;13279;51.300;12.394;2024-01-27T13:06:04;8.70;99.90
25328;DHT22;13279;51.300;12.394;2024-01-27T13:08:32;8.80;99.90
25328;DHT22;13279;51.300;12.394;2024-01-27T13:10:59;8.80;99.90
25328;DHT22;13279;51.300;12.394;2024-01-27T13:13:28;8.90;99.90
25328;DHT22;13279;51.300;12.394;2024-01-27T13:15:55;9.00;99.90
25328;DHT22;13279;51.300;12.394;2024-01-27T13:18:23;9.10;99.90
25328;DHT22;13279;51.300;12.394;2024-01-27T13:20:50;9.20;99.90
25328;DHT22;13279;51.300;12.394;2024-01-27T13:23:17;9.50;99.90
25328;DHT22;13279;51.300;12.394;2024-01-27T13:25:45;9.80;99.90
25328;DHT22;13279;51.300;12.394;2024-01-27T13:28:12;9.80;99.90
25328;DHT22;13279;51.300;12.394;2024-01-27T13:30:41;9.70;99.90
25328;DHT22;13279;51.300;12.394;2024-01-27T13:33:09;9.70;99.90
25328;DHT22;13279;51.300;12.394;2024-01-27T13:35:37;9.80;99.90
25328;DHT22;13279;51.300;12.394;2024-01-27T13:38:09;9.90;99.90
25328;DHT22;13279;51.300;12.394;2024-01-27T13:40:36;10.00;99.90
25328;DHT22;13279;51.300;12.394;2024-01-27T13:43:04;10.20;99.90
25328;DHT22;13279;51.300;12.394;2024-01-27T13:45:31;10.30;99.90
25328;DHT22;13279;51.300;12.394;2024-01-27T13:48:00;10.20;99.90
25328;DHT22;13279;51.300;12.394;2024-01-27T13:50:27;10.20;99.90
25328;DHT22;13279;51.300;12.394;2024-01-27T13:52:57;10.30;99.90
25328;DHT22;13279;51.300;12.394;2024-01-27T13:55:24;10.30;99.90
25328;DHT22;13279;51.300;12.394;2024-01-27T13:57:53;10.20;99.90
25328;DHT22;13279;51.300;12.394;2024-01-27T14:00:20;10.10;99.90
25328;DHT22;13279;51.300;12.394;2024-01-27T14:02:48;10.20;99.90
25328;DHT22;13279;51.300;12.394;2024-01-27T14:05:16;10.30;99.90
25328;DHT22;13279;51.300;12.394;2024-01-27T14:07:44;10.40;99.90
25328;DHT22;13279;51.300;12.394;2024-01-27T14:10:11;10.60;99.90
25328;DHT22;13279;51.300;12.394;2024-01-27T14:12:39;10.40;99.90
25328;DHT22;13279;51.300;12.394;2024-01-27T14:15:07;10.50;99.90
25328;DHT22;13279;51.300;12.394;2024-01-27T14:17:35;10.60;99.90
25328;DHT22;13279;51.300;12.394;2024-01-27T14:20:03;10.60;99.90
25328;DHT22;13279;51.300;12.394;2024-01-27T14:22:32;10.70;99.90
25328;DHT22;13279;51.300;12.394;2024-01-27T14:25:00;10.80;99.90
25328;DHT22;13279;51.300;12.394;2024-01-27T14:27:27;11.00;99.90
25328;DHT22;13279;51.300;12.394;2024-01-27T14:29:54;11.00;99.90
25328;DHT22;13279;51.300;12.394;2024-01-27T14:32:23;11.10;99.90
25328;DHT22;13279;51.300;12.394;2024-01-27T14:34:50;11.10;99.90
25328;DHT22;13279;51.300;12.394;2024-01-27T14:37:17;11.10;99.90
25328;DHT22;13279;51.300;12.394;2024-01-27T14:39:46;11.10;99.90
25328;DHT22;13279;51.300;12.394;2024-01-27T14:42:15;11.10;99.90
25328;DHT22;13279;51.300;12.394;2024-01-27T14:44:43;11.10;99.90
25328;DHT22;13279;51.300;12.394;2024-01-27T14:47:11;11.20;99.90
25328;DHT22;13279;51.300;12.394;2024-01-27T14:49:39;11.10;99.90
25328;DHT22;13279;51.300;12.394;2024-01-27T14:52:07;11.20;99.90
25328;DHT22;13279;51.300;12.394;2024-01-27T14:54:34;11.00;99.90
25328;DHT22;13279;51.300;12.394;2024-01-27T14:57:04;11.10;99.90
25328;DHT22;13279;51.300;12.394;2024-01-27T14:59:35;11.10;99.90
25328;DHT22;13279;51.300;12.394;2024-01-27T15:02:05;11.10;99.90
25328;DHT22;13279;51.300;12.394;2024-01-27T15:04:33;11.00;99.90
25328;DHT22;13279;51.300;12.394;2024-01-27T15:07:00;11.00;99.90
25328;DHT22;13279;51.300;12.394;2024-01-27T15:09:28;11.10;99.90
25328;DHT22;13279;51.300;12.394;2024-01-27T15:11:55;11.30;99.90
25328;DHT22;13279;51.300;12.394;2024-01-27T15:14:24;11.10;99.90
25328;DHT22;13279;51.300;12.394;2024-01-27T15:16:52;10.80;99.90
25328;DHT22;13279;51.300;12.394;2024-01-27T15:19:20;10.60;99.90
25328;DHT22;13279;51.300;12.394;2024-01-27T15:21:47;10.50;99.90
25328;DHT22;13279;51.300;12.394;2024-01-27T15:24:14;10.30;99.90
25328;DHT22;13279;51.300;12.394;2024-01-27T15:26:41;10.10;99.90
25328;DHT22;13279;51.300;12.394;2024-01-27T15:29:09;9.80;99.90
25328;DHT22;13279;51.300;12.394;2024-01-27T15:31:39;9.50;99.90
25328;DHT22;13279;51.300;12.394;2024-01-27T15:34:06;9.20;99.90